Flight Track Log - Related Links

Times and Time Zones

All times are in EDT time to prevent confusion due to time zone crossing. See the FSR411 flight status page for this flight to view local times or setup timezone preferences in your user account.

Time Position Orientation Groundspeed Altitude Reporting Facility
EDT Latitude Longitude Course Direction KTS MPH feet Rate Location/Type
Thu 07:01:18 40.0869 -88.3181 339° North 237 273 3,500  Level Chicago Center
Thu 07:02:19 40.1517 -88.3525 338° Northwest 254 292 6,100 2,656 Climbing Chicago Center
Thu 07:03:20 40.2217 -88.3939 336° Northwest 281 323 8,900 2,380 Climbing Chicago Center
Thu 07:04:00 40.4586 -88.5168 333° Northwest  Level FlightAware
Thu 07:04:20 40.3078 -88.3953 359° North 329 379 10,900  Level Chicago Center
Thu 07:05:00 40.5281 -88.5632 333° Northwest  Level FlightAware
Thu 07:05:21 40.3931 -88.3300 30° Northeast 354 407 11,000  Level Chicago Center
Thu 07:06:00 40.6008 -88.6004 339° North  Level FlightAware
Thu 07:06:22 40.4828 -88.2714 26° Northeast 362 417 11,000  Level Chicago Center
Thu 07:07:23 40.5706 -88.2119 27° Northeast 358 412 11,000  Level Chicago Center
Thu 07:08:23 40.6586 -88.1525 27° Northeast 359 413 11,000  Level Chicago Center
Thu 07:09:24 40.7486 -88.0922 27° Northeast 362 417 11,000 -148 Level Chicago Center
Thu 07:10:25 40.8581 -88.0183 27° Northeast 370 426 10,700 -689 Descending Chicago Center
Thu 07:11:26 40.9403 -87.9619 27° Northeast 340 391 9,600 -1,082 Descending Chicago Center
Thu 07:12:27 41.0139 -87.9119 27° Northeast 308 354 8,500 -1,131 Descending Chicago Center
Thu 07:13:28 41.0842 -87.8650 27° Northeast 290 334 7,300 -1,131 Descending Chicago Center
Thu 07:14:29 41.1531 -87.8175 27° Northeast 284 327 6,200 -1,131 Descending Chicago Center
Thu 07:15:30 41.2222 -87.7706 27° Northeast 284 327 5,000 -1,082 Descending Chicago Center
Thu 07:16:31 41.2958 -87.7522 11° North 272 313 4,000 -492 Descending Chicago Center
Thu 07:17:32 41.3692 -87.7367 North 270 311 4,000  Level Chicago Center
Thu 07:18:33 41.4578 -87.7158 10° North 272 313 4,000 -197 Level Chicago Center
Thu 07:19:34 41.5250 -87.6997 10° North 262 302 3,600 -541 Descending Chicago Center
Thu 07:20:35 41.5908 -87.6836 10° North 251 289 2,900 -295 Descending Chicago Center
Thu 07:21:36 41.6433 -87.6514 25° Northeast 236 272 3,000 49 Climbing Chicago Center
Thu 07:22:38 41.6833 -87.6144 35° Northeast 217 250 3,000 -293 Level Chicago Center
Thu 07:23:39 41.7169 -87.6558 317° Northwest 182 209 2,400 -639 Descending Chicago Center
Thu 07:24:40 41.7444 -87.6964 312° West 165 190 1,700 -738 Descending Chicago Center
Thu 07:25:41 41.7725 -87.7356 314° West 140 161 900 -787 Descending Chicago Center
Thu 07:27:00 41.7833 -87.7500 334° Northwest  Level FlightAware
Thu 07:34:00 41.7860 -87.7524 334° Northwest  Level Estimated

Login

Don't have an account? Register now (free) for customized features, flight alerts, and more!